Terminal Aerodrome Forecast
Issued by NWS

Home | Current Version | Previous Version | Text Only | Print | Product List | Glossary On
Versions: 1 2 3 4 5 6 7 8 9 10 11 12 13 14 15 16 17 18 19 20 21 22 23 24 25 26 27 28
000
FTUS43 KSGF 040700 AAA
TAFBBG
TAF AMD
KBBG 040725Z 0407/0506 36005KT 1/2SM -RADZ FG OVC002
      TEMPO 0407/0410 3SM -RADZ BR OVC015
     FM041000 36010KT 2SM -RADZ BR OVC005
     FM041400 36012KT 2SM -FZRAPL BR OVC003
     FM041600 36012KT 1/2SM SN FG OVC004
     FM042200 01010KT 2SM -SN BR OVC006
     FM050000 36010KT 5SM -SN BR OVC015=

USA.gov is the U.S. government's official web portal to all federal, state and local government web resources and services.